createdAt,value
2022-08-17T00:01:56.630Z,23.00
2022-08-17T00:04:02.064Z,23.00
2022-08-17T00:06:08.740Z,22.98
2022-08-17T00:08:13.003Z,22.97
2022-08-17T00:10:15.069Z,22.95
2022-08-17T00:12:41.715Z,22.92
2022-08-17T00:14:40.248Z,22.93
2022-08-17T00:16:55.453Z,22.91
2022-08-17T00:19:07.449Z,22.90
2022-08-17T00:21:11.879Z,22.91
2022-08-17T00:23:18.137Z,22.91
2022-08-17T00:25:20.341Z,22.91
2022-08-17T00:27:22.653Z,22.90
2022-08-17T00:29:24.990Z,22.90
2022-08-17T00:31:27.453Z,22.90
2022-08-17T00:33:31.816Z,22.89
2022-08-17T00:35:35.072Z,22.91
2022-08-17T00:37:37.085Z,22.89
2022-08-17T00:39:39.274Z,22.88
2022-08-17T00:41:42.447Z,22.88
2022-08-17T00:43:50.850Z,22.88
2022-08-17T00:45:53.712Z,22.88
2022-08-17T00:47:55.780Z,22.86
2022-08-17T00:49:57.736Z,22.86
2022-08-17T00:52:11.683Z,22.85
2022-08-17T00:54:19.124Z,22.86
2022-08-17T00:56:29.073Z,22.88
2022-08-17T00:58:36.276Z,22.87
2022-08-17T01:00:43.156Z,22.88
2022-08-17T01:02:47.159Z,22.88
2022-08-17T01:04:52.931Z,22.89
2022-08-17T01:06:57.090Z,22.88
2022-08-17T01:09:00.087Z,22.87
2022-08-17T01:11:03.047Z,22.89
2022-08-17T01:13:06.005Z,22.89
2022-08-17T01:15:08.749Z,22.90
2022-08-17T01:17:15.194Z,22.88
2022-08-17T01:19:30.106Z,22.89
2022-08-17T01:21:57.679Z,22.89
2022-08-17T01:24:05.654Z,22.88
2022-08-17T01:26:07.726Z,22.89
2022-08-17T01:28:09.988Z,22.89
2022-08-17T01:30:58.091Z,22.88
2022-08-17T01:32:35.466Z,22.87
2022-08-17T01:34:42.337Z,22.87
2022-08-17T01:36:47.890Z,22.87
2022-08-17T01:38:50.196Z,22.86
2022-08-17T01:40:58.118Z,22.85
2022-08-17T01:43:07.449Z,22.85
2022-08-17T01:45:14.902Z,22.82
2022-08-17T01:47:19.847Z,22.81
2022-08-17T01:49:23.159Z,22.82
2022-08-17T01:51:32.837Z,22.80
2022-08-17T01:53:39.953Z,22.78
2022-08-17T01:55:48.248Z,22.77
2022-08-17T01:57:50.811Z,22.71
2022-08-17T01:59:52.727Z,22.67
2022-08-17T02:01:56.584Z,22.66
2022-08-17T02:04:01.165Z,22.64
2022-08-17T02:06:05.391Z,22.61
2022-08-17T02:08:19.850Z,22.59
2022-08-17T02:10:22.332Z,22.54
2022-08-17T02:12:47.940Z,22.57
2022-08-17T02:14:47.143Z,22.54
2022-08-17T02:16:49.177Z,22.55
2022-08-17T02:18:51.125Z,22.52
2022-08-17T02:20:53.943Z,22.48
2022-08-17T02:22:55.989Z,22.45
2022-08-17T02:25:01.885Z,22.42
2022-08-17T02:27:04.889Z,22.41
2022-08-17T02:29:07.509Z,22.39
2022-08-17T02:31:12.748Z,22.39
2022-08-17T02:33:15.093Z,22.37
2022-08-17T02:35:17.043Z,22.35
2022-08-17T02:37:22.041Z,22.32
2022-08-17T02:39:24.183Z,22.28
2022-08-17T02:41:25.985Z,22.27
2022-08-17T02:43:28.890Z,22.28
2022-08-17T02:45:30.972Z,22.27
2022-08-17T02:47:33.246Z,22.25
2022-08-17T02:49:35.269Z,22.24
2022-08-17T02:51:37.099Z,22.24
2022-08-17T02:53:50.787Z,22.24
2022-08-17T02:55:53.058Z,22.25
2022-08-17T02:57:55.781Z,22.22
2022-08-17T02:59:57.680Z,22.26
2022-08-17T03:01:59.628Z,22.20
2022-08-17T03:04:01.742Z,22.24
2022-08-17T03:06:05.125Z,22.21
2022-08-17T03:08:07.470Z,22.18
2022-08-17T03:10:15.100Z,22.17
2022-08-17T03:12:18.107Z,22.18
2022-08-17T03:14:20.166Z,22.18
2022-08-17T03:16:28.267Z,22.17
2022-08-17T03:18:30.459Z,22.17
2022-08-17T03:20:33.737Z,22.20
2022-08-17T03:22:42.345Z,22.18
2022-08-17T03:24:50.230Z,22.16
2022-08-17T03:26:52.760Z,22.12
2022-08-17T03:28:54.668Z,22.11
2022-08-17T03:30:56.789Z,22.05
2022-08-17T03:33:01.142Z,22.02
2022-08-17T03:35:03.098Z,21.95
2022-08-17T03:37:05.074Z,21.98
2022-08-17T03:39:07.164Z,21.95
2022-08-17T03:41:09.147Z,21.87
2022-08-17T03:43:11.201Z,21.88
2022-08-17T03:45:16.490Z,21.90
2022-08-17T03:47:37.066Z,21.90
2022-08-17T03:49:57.676Z,21.92
2022-08-17T03:52:18.335Z,21.93
2022-08-17T03:54:38.688Z,21.94
2022-08-17T03:56:44.728Z,21.92
2022-08-17T03:58:47.551Z,21.93
2022-08-17T04:00:51.155Z,21.93
2022-08-17T04:02:53.456Z,21.92
2022-08-17T04:04:55.918Z,21.87
2022-08-17T04:06:58.112Z,21.87
2022-08-17T04:09:00.226Z,21.89
2022-08-17T04:11:02.341Z,21.88
2022-08-17T04:13:04.694Z,21.91
2022-08-17T04:15:07.286Z,21.88
2022-08-17T04:17:09.163Z,21.84
2022-08-17T04:19:11.519Z,21.85
2022-08-17T04:21:13.468Z,21.85
2022-08-17T04:23:17.971Z,21.84
2022-08-17T04:25:20.064Z,21.84
2022-08-17T04:27:22.049Z,21.84
2022-08-17T04:29:26.319Z,21.83
2022-08-17T04:31:56.413Z,21.79
2022-08-17T04:33:58.394Z,21.80
2022-08-17T04:36:03.161Z,21.82
2022-08-17T04:38:06.447Z,21.75
2022-08-17T04:40:27.586Z,21.80
2022-08-17T04:42:30.778Z,21.77
2022-08-17T04:44:37.375Z,21.79
2022-08-17T04:46:40.288Z,21.77
2022-08-17T04:48:46.264Z,21.75
2022-08-17T04:50:50.606Z,21.73
2022-08-17T04:52:52.572Z,21.71
2022-08-17T04:54:54.529Z,21.71
2022-08-17T04:56:56.592Z,21.70
2022-08-17T04:59:02.771Z,21.69
2022-08-17T05:01:06.084Z,21.68
2022-08-17T05:03:08.233Z,21.65
2022-08-17T05:05:10.147Z,21.64
2022-08-17T05:07:17.616Z,21.60
2022-08-17T05:09:21.949Z,21.55
2022-08-17T05:11:26.458Z,21.55
2022-08-17T05:13:31.807Z,21.56
2022-08-17T05:15:36.160Z,21.55
2022-08-17T05:17:37.991Z,21.56
2022-08-17T05:19:39.861Z,21.56
2022-08-17T05:21:50.309Z,21.53
2022-08-17T05:23:56.242Z,21.49
2022-08-17T05:25:58.649Z,21.49
2022-08-17T05:28:00.511Z,21.49
2022-08-17T05:30:04.306Z,21.47
2022-08-17T05:32:39.692Z,21.48
2022-08-17T05:34:36.763Z,21.47
2022-08-17T05:36:43.861Z,21.48
2022-08-17T05:38:46.087Z,21.43
2022-08-17T05:40:48.460Z,21.47
2022-08-17T05:42:50.982Z,21.49
2022-08-17T05:44:52.916Z,21.50
2022-08-17T05:46:55.005Z,21.51
2022-08-17T05:49:04.439Z,21.52
2022-08-17T05:51:12.158Z,21.53
2022-08-17T05:53:33.059Z,21.51
2022-08-17T05:56:01.723Z,21.53
2022-08-17T05:58:45.618Z,21.54
2022-08-17T06:01:13.144Z,21.48
2022-08-17T06:03:33.342Z,21.55
2022-08-17T06:05:51.481Z,21.57
2022-08-17T06:07:57.631Z,21.58
2022-08-17T06:10:31.698Z,21.60
2022-08-17T06:12:42.098Z,21.61
2022-08-17T06:14:49.484Z,21.60
2022-08-17T06:16:59.321Z,21.61
2022-08-17T06:19:14.726Z,21.59
2022-08-17T06:21:20.028Z,21.66
2022-08-17T06:23:39.326Z,21.69
2022-08-17T06:25:47.798Z,21.69
2022-08-17T06:27:55.713Z,21.67
2022-08-17T06:30:09.430Z,21.69
2022-08-17T06:32:13.225Z,21.72
2022-08-17T06:34:15.702Z,21.65
2022-08-17T06:36:28.153Z,21.71
2022-08-17T06:39:03.246Z,21.72
2022-08-17T06:41:18.010Z,21.76
2022-08-17T06:43:39.704Z,21.76
2022-08-17T06:45:49.546Z,21.80
2022-08-17T06:48:24.477Z,21.83
2022-08-17T06:50:44.013Z,21.85
2022-08-17T06:52:57.639Z,21.91
2022-08-17T06:55:08.066Z,21.97
2022-08-17T06:57:30.627Z,21.98
2022-08-17T06:59:55.124Z,21.95
2022-08-17T07:02:05.650Z,21.98
2022-08-17T07:04:13.076Z,22.01
2022-08-17T07:06:18.135Z,22.03
2022-08-17T07:08:27.682Z,22.01
2022-08-17T07:10:50.982Z,22.00
2022-08-17T07:12:56.022Z,22.05
2022-08-17T07:15:12.949Z,22.08
2022-08-17T07:17:17.383Z,22.07
2022-08-17T07:19:24.433Z,22.11
2022-08-17T07:21:55.114Z,22.18
2022-08-17T07:24:29.537Z,22.21
2022-08-17T07:26:32.098Z,22.27
2022-08-17T07:28:35.579Z,22.27
2022-08-17T07:30:47.375Z,22.30
2022-08-17T07:32:58.472Z,22.31
2022-08-17T07:35:10.901Z,22.35
2022-08-17T07:37:18.923Z,22.37
2022-08-17T07:39:28.182Z,22.40
2022-08-17T07:41:53.178Z,22.39
2022-08-17T07:43:58.470Z,22.41
2022-08-17T07:46:36.939Z,22.37
2022-08-17T07:48:41.362Z,22.37
2022-08-17T07:50:43.035Z,22.42
2022-08-17T07:52:52.608Z,22.43
2022-08-17T07:54:54.640Z,22.47
2022-08-17T07:57:02.175Z,22.47
2022-08-17T07:59:10.307Z,22.45
2022-08-17T08:01:18.477Z,22.50
2022-08-17T08:03:32.029Z,22.55
2022-08-17T08:05:50.171Z,22.55
2022-08-17T08:07:58.403Z,22.55
2022-08-17T08:10:14.030Z,22.54
2022-08-17T08:12:33.362Z,22.59
2022-08-17T08:14:38.639Z,22.50
2022-08-17T08:16:55.258Z,22.51
2022-08-17T08:18:59.907Z,22.56
2022-08-17T08:21:09.608Z,22.53
2022-08-17T08:23:21.070Z,22.47
2022-08-17T08:25:45.422Z,22.49
2022-08-17T08:28:08.858Z,22.36
2022-08-17T08:30:16.231Z,22.34
2022-08-17T08:32:30.287Z,22.42
2022-08-17T08:34:45.020Z,22.47
2022-08-17T08:37:15.748Z,22.50
2022-08-17T08:39:28.543Z,22.57
2022-08-17T08:42:10.029Z,22.65
2022-08-17T08:44:23.873Z,22.73
2022-08-17T08:47:14.437Z,22.80
2022-08-17T08:50:03.222Z,22.88
2022-08-17T08:52:20.181Z,22.98
2022-08-17T08:54:53.849Z,23.07
2022-08-17T08:59:54.143Z,23.31
2022-08-17T09:02:29.522Z,23.39
2022-08-17T09:05:14.393Z,23.48
2022-08-17T09:07:31.688Z,23.58
2022-08-17T09:09:59.499Z,23.67
2022-08-17T09:12:29.249Z,23.77
2022-08-17T09:14:46.588Z,23.79
2022-08-17T09:17:05.891Z,23.86
2022-08-17T09:19:34.101Z,23.92
2022-08-17T09:21:47.961Z,23.92
2022-08-17T09:24:35.867Z,24.00
2022-08-17T09:26:46.446Z,24.03
2022-08-17T09:28:52.732Z,24.01
2022-08-17T09:31:03.127Z,24.03
2022-08-17T09:33:08.618Z,24.05
2022-08-17T09:35:15.925Z,24.09
2022-08-17T09:37:20.438Z,24.17
2022-08-17T09:39:33.455Z,24.16
2022-08-17T09:41:52.883Z,24.16
2022-08-17T09:44:23.133Z,24.13
2022-08-17T09:46:41.013Z,24.21
2022-08-17T09:48:55.294Z,24.23
2022-08-17T09:51:07.137Z,24.24
2022-08-17T09:53:09.474Z,24.24
2022-08-17T09:55:11.277Z,24.27
2022-08-17T09:57:32.562Z,24.33
2022-08-17T10:00:11.339Z,24.41
2022-08-17T10:02:50.565Z,24.59
2022-08-17T10:05:12.095Z,24.72
2022-08-17T10:07:32.568Z,24.91
2022-08-17T10:09:48.756Z,25.11
2022-08-17T10:12:30.132Z,25.17
2022-08-17T10:14:55.062Z,25.19
2022-08-17T10:17:22.353Z,25.23
2022-08-17T10:19:26.816Z,25.23
2022-08-17T10:22:00.881Z,25.30
2022-08-17T10:24:33.487Z,25.40
2022-08-17T10:26:55.419Z,25.45
2022-08-17T10:29:11.613Z,25.45
2022-08-17T10:31:40.798Z,25.55
2022-08-17T10:34:19.112Z,25.63
2022-08-17T10:36:37.927Z,25.66
2022-08-17T10:38:42.305Z,25.63
2022-08-17T10:40:43.912Z,25.71
2022-08-17T10:42:51.879Z,25.67
2022-08-17T10:45:13.978Z,25.67
2022-08-17T10:47:18.206Z,25.63
2022-08-17T10:49:22.596Z,25.59
2022-08-17T10:51:41.697Z,25.45
2022-08-17T10:53:43.683Z,25.48
2022-08-17T10:56:14.349Z,25.46
2022-08-17T10:58:24.532Z,25.42
2022-08-17T11:00:43.939Z,25.37
2022-08-17T11:02:50.225Z,25.46
2022-08-17T11:05:08.832Z,25.67
2022-08-17T11:07:35.474Z,25.92
2022-08-17T11:10:09.973Z,26.18
2022-08-17T11:12:49.244Z,26.46
2022-08-17T11:15:20.111Z,26.60
2022-08-17T11:17:57.699Z,26.79
2022-08-17T11:20:38.157Z,26.95
2022-08-17T11:23:08.134Z,27.06
2022-08-17T11:25:21.673Z,27.11
2022-08-17T11:27:29.542Z,27.15
2022-08-17T11:29:53.528Z,27.25
2022-08-17T11:32:02.721Z,27.25
2022-08-17T11:34:06.400Z,27.38
2022-08-17T11:36:49.481Z,27.51
2022-08-17T11:39:06.165Z,27.66
2022-08-17T11:41:20.238Z,27.81
2022-08-17T11:43:58.698Z,28.02
2022-08-17T11:46:25.923Z,28.26
2022-08-17T11:48:53.173Z,28.49
2022-08-17T11:51:54.215Z,28.64
2022-08-17T11:54:21.658Z,28.62
2022-08-17T11:56:34.071Z,28.66
2022-08-17T11:58:43.185Z,28.85
2022-08-17T12:00:45.902Z,28.96
2022-08-17T12:02:48.826Z,29.09
2022-08-17T12:05:14.774Z,29.25
2022-08-17T12:07:23.212Z,29.35
2022-08-17T12:09:29.932Z,29.51
2022-08-17T12:12:13.845Z,29.56
2022-08-17T12:14:45.084Z,29.65
2022-08-17T12:16:59.874Z,29.85
2022-08-17T12:19:03.734Z,29.99
2022-08-17T12:21:23.503Z,30.10
2022-08-17T12:23:40.588Z,30.05
2022-08-17T12:25:58.229Z,30.04
2022-08-17T12:28:05.273Z,29.98
2022-08-17T12:30:14.493Z,29.87
2022-08-17T12:32:20.218Z,29.85
2022-08-17T12:34:27.937Z,29.71
2022-08-17T12:36:32.078Z,29.67
2022-08-17T12:38:36.242Z,29.57
2022-08-17T12:40:38.141Z,29.41
2022-08-17T12:42:41.499Z,29.25
2022-08-17T12:44:50.082Z,29.20
2022-08-17T12:47:00.982Z,29.08
2022-08-17T12:49:31.586Z,28.93
2022-08-17T12:51:34.073Z,28.84
2022-08-17T12:53:35.989Z,28.74
2022-08-17T12:55:39.295Z,28.61
2022-08-17T12:57:54.368Z,28.56
2022-08-17T13:00:20.013Z,28.40
2022-08-17T13:02:53.779Z,28.30
2022-08-17T13:04:59.211Z,28.16
2022-08-17T13:07:03.162Z,28.13
2022-08-17T13:09:18.594Z,28.04
2022-08-17T13:11:24.871Z,27.88
2022-08-17T13:13:29.849Z,27.72
2022-08-17T13:15:51.276Z,27.60
2022-08-17T13:18:09.016Z,27.48
2022-08-17T13:20:15.834Z,27.27
2022-08-17T13:22:22.456Z,27.12
2022-08-17T13:24:26.427Z,27.02
2022-08-17T13:26:51.442Z,26.84
2022-08-17T13:28:54.521Z,26.72
2022-08-17T13:31:26.372Z,26.55
2022-08-17T13:33:44.628Z,26.30
2022-08-17T13:35:50.421Z,26.07
2022-08-17T13:38:10.508Z,25.61
2022-08-17T13:40:12.183Z,25.31
2022-08-17T13:42:32.815Z,25.41
2022-08-17T13:44:40.475Z,25.25
2022-08-17T13:46:52.488Z,25.17
2022-08-17T13:49:11.660Z,24.87
2022-08-17T13:51:19.865Z,24.91
2022-08-17T13:53:26.698Z,24.74
2022-08-17T13:55:31.312Z,24.64
2022-08-17T13:57:33.450Z,24.44
2022-08-17T13:59:54.513Z,24.34
2022-08-17T14:01:57.455Z,24.29
2022-08-17T14:04:01.923Z,24.18
2022-08-17T14:06:05.279Z,24.01
2022-08-17T14:08:07.350Z,23.85
2022-08-17T14:10:17.966Z,23.69
2022-08-17T14:12:23.091Z,23.57
2022-08-17T14:14:25.592Z,23.45
2022-08-17T14:16:27.295Z,23.39
2022-08-17T14:18:31.183Z,23.31
2022-08-17T14:20:53.239Z,23.19
2022-08-17T14:22:55.925Z,23.14
2022-08-17T14:24:59.910Z,23.07
2022-08-17T14:27:03.847Z,23.03
2022-08-17T14:29:05.624Z,23.01
2022-08-17T14:31:16.877Z,22.97
2022-08-17T14:33:22.599Z,23.03
2022-08-17T14:35:27.902Z,22.92
2022-08-17T14:37:30.972Z,22.87
2022-08-17T14:39:32.941Z,22.89
2022-08-17T14:41:35.517Z,22.88
2022-08-17T14:43:37.328Z,22.81
2022-08-17T14:45:39.023Z,22.78
2022-08-17T14:47:41.845Z,22.73
2022-08-17T14:49:43.906Z,22.74
2022-08-17T14:51:49.814Z,22.71
2022-08-17T14:53:51.538Z,22.69
2022-08-17T14:55:55.842Z,22.57
2022-08-17T14:57:57.578Z,22.63
2022-08-17T15:00:00.167Z,22.58
2022-08-17T15:02:05.014Z,22.55
2022-08-17T15:04:07.100Z,22.53
2022-08-17T15:06:09.842Z,22.55
2022-08-17T15:08:12.680Z,22.50
2022-08-17T15:10:16.043Z,22.54
2022-08-17T15:12:21.977Z,22.57
2022-08-17T15:14:23.731Z,22.55
2022-08-17T15:16:27.052Z,22.53
2022-08-17T15:18:29.847Z,22.55
2022-08-17T15:20:31.620Z,22.51
2022-08-17T15:22:33.344Z,22.55
2022-08-17T15:24:35.289Z,22.54
2022-08-17T15:26:38.070Z,22.49
2022-08-17T15:28:39.921Z,22.50
2022-08-17T15:30:43.825Z,22.52
2022-08-17T15:32:51.174Z,22.52
2022-08-17T15:34:58.746Z,22.41
2022-08-17T15:37:00.506Z,22.48
2022-08-17T15:39:03.697Z,22.45
2022-08-17T15:41:15.150Z,22.41
2022-08-17T15:43:24.806Z,22.38
2022-08-17T15:45:30.819Z,22.37
2022-08-17T15:47:32.678Z,22.31
2022-08-17T15:49:34.640Z,22.32
2022-08-17T15:51:36.761Z,22.28
2022-08-17T15:53:39.365Z,22.22
2022-08-17T15:55:41.220Z,22.22
2022-08-17T15:57:42.917Z,22.19
2022-08-17T15:59:46.349Z,22.16
2022-08-17T16:03:14.978Z,22.12
2022-08-17T16:04:30.153Z,22.08
2022-08-17T16:06:33.031Z,22.07
2022-08-17T16:08:35.462Z,22.06
2022-08-17T16:10:37.267Z,22.04
2022-08-17T16:12:39.002Z,22.01
2022-08-17T16:14:40.770Z,21.98
2022-08-17T16:16:42.484Z,21.95
2022-08-17T16:18:44.258Z,21.93
2022-08-17T16:20:45.958Z,21.80
2022-08-17T16:22:49.845Z,21.80
2022-08-17T16:24:56.953Z,21.81
2022-08-17T16:26:59.567Z,21.84
2022-08-17T16:29:05.260Z,21.83
2022-08-17T16:31:08.242Z,21.81
2022-08-17T16:33:12.284Z,21.80
2022-08-17T16:35:18.248Z,21.79
2022-08-17T16:37:20.061Z,21.79
2022-08-17T16:39:22.379Z,21.80
2022-08-17T16:41:47.538Z,21.76
2022-08-17T16:43:49.826Z,21.79
2022-08-17T16:45:52.341Z,21.79
2022-08-17T16:47:55.198Z,21.74
2022-08-17T16:49:56.959Z,21.67
2022-08-17T16:52:03.410Z,21.72
2022-08-17T16:54:06.343Z,21.69
2022-08-17T16:56:08.035Z,21.74
2022-08-17T16:58:10.231Z,21.72
2022-08-17T17:00:14.479Z,21.69
2022-08-17T17:02:25.331Z,21.74
2022-08-17T17:04:27.705Z,21.71
2022-08-17T17:06:46.310Z,21.77
2022-08-17T17:09:12.204Z,21.72
2022-08-17T17:11:36.477Z,21.75
2022-08-17T17:13:46.887Z,21.75
2022-08-17T17:16:24.019Z,21.77
2022-08-17T17:19:01.708Z,21.75
2022-08-17T17:21:04.829Z,21.84
2022-08-17T17:23:25.166Z,21.82
2022-08-17T17:25:32.988Z,21.85
2022-08-17T17:27:52.758Z,21.86
2022-08-17T17:30:04.795Z,21.87
2022-08-17T17:32:32.986Z,21.90
2022-08-17T17:34:36.485Z,21.87
2022-08-17T17:36:47.614Z,21.88
2022-08-17T17:38:54.053Z,21.92
2022-08-17T17:41:05.587Z,21.96
2022-08-17T17:43:37.209Z,22.00
2022-08-17T17:45:40.637Z,22.02
2022-08-17T17:47:43.239Z,22.10
2022-08-17T17:49:48.820Z,22.11
2022-08-17T17:52:11.149Z,22.13
2022-08-17T17:54:44.367Z,22.17
2022-08-17T17:57:04.363Z,22.12
2022-08-17T17:59:21.087Z,22.16
2022-08-17T18:01:31.988Z,22.13
2022-08-17T18:04:20.771Z,22.16
2022-08-17T18:06:56.560Z,22.18
2022-08-17T18:09:15.484Z,22.21
2022-08-17T18:11:36.309Z,22.23
2022-08-17T18:14:01.996Z,22.16
2022-08-17T18:16:10.610Z,22.23
2022-08-17T18:18:15.222Z,22.25
2022-08-17T18:20:36.468Z,22.28
2022-08-17T18:22:47.250Z,22.26
2022-08-17T18:24:56.559Z,22.30
2022-08-17T18:27:01.971Z,22.29
2022-08-17T18:29:30.302Z,22.26
2022-08-17T18:31:32.358Z,22.28
2022-08-17T18:33:34.966Z,22.30
2022-08-17T18:35:36.781Z,22.30
2022-08-17T18:37:45.008Z,22.31
2022-08-17T18:39:46.894Z,22.29
2022-08-17T18:41:53.165Z,22.33
2022-08-17T18:44:04.814Z,22.28
2022-08-17T18:46:30.072Z,22.28
2022-08-17T18:48:52.803Z,22.30
2022-08-17T18:51:00.353Z,22.31
2022-08-17T18:53:33.537Z,22.25
2022-08-17T18:55:36.116Z,22.22
2022-08-17T18:57:48.745Z,22.23
2022-08-17T18:59:50.743Z,22.21
2022-08-17T19:02:15.304Z,22.09
2022-08-17T19:04:34.519Z,22.11
2022-08-17T19:06:37.977Z,22.13
2022-08-17T19:08:40.325Z,22.12
2022-08-17T19:10:46.967Z,22.14
2022-08-17T19:13:00.744Z,22.11
2022-08-17T19:15:04.413Z,22.16
2022-08-17T19:17:21.084Z,22.13
2022-08-17T19:19:51.016Z,22.13
2022-08-17T19:22:13.673Z,22.06
2022-08-17T19:24:26.540Z,22.10
2022-08-17T19:26:51.124Z,22.08
2022-08-17T19:29:04.007Z,22.07
2022-08-17T19:31:16.789Z,22.01
2022-08-17T19:33:22.192Z,22.03
2022-08-17T19:35:32.398Z,22.03
2022-08-17T19:38:00.759Z,21.99
2022-08-17T19:40:29.257Z,21.99
2022-08-17T19:42:52.870Z,21.98
2022-08-17T19:45:04.073Z,21.98
2022-08-17T19:47:19.555Z,21.96
2022-08-17T19:50:00.931Z,21.92
2022-08-17T19:52:34.277Z,21.92
2022-08-17T19:54:55.727Z,21.95
2022-08-17T19:57:35.055Z,21.88
2022-08-17T20:00:09.682Z,21.89
2022-08-17T20:02:35.538Z,21.79
2022-08-17T20:04:43.396Z,21.86
2022-08-17T20:06:49.526Z,21.85
2022-08-17T20:09:14.336Z,21.84
2022-08-17T20:11:31.715Z,21.82
2022-08-17T20:13:45.007Z,21.83
2022-08-17T20:15:47.932Z,21.87
2022-08-17T20:17:51.053Z,21.85
2022-08-17T20:20:20.259Z,21.87
2022-08-17T20:22:51.910Z,21.85
2022-08-17T20:24:57.764Z,21.86
2022-08-17T20:27:12.337Z,21.83
2022-08-17T20:29:14.409Z,21.82
2022-08-17T20:31:56.262Z,21.82
2022-08-17T20:34:33.752Z,21.84
2022-08-17T20:36:57.504Z,21.83
2022-08-17T20:39:00.362Z,21.80
2022-08-17T20:41:10.314Z,21.80
2022-08-17T20:43:33.475Z,21.81
2022-08-17T20:45:53.128Z,21.76
2022-08-17T20:50:32.499Z,21.81
2022-08-17T20:52:51.732Z,21.74
2022-08-17T20:54:57.604Z,21.77
2022-08-17T20:57:01.128Z,21.76
2022-08-17T20:59:03.679Z,21.76
2022-08-17T21:01:14.977Z,21.75
2022-08-17T21:03:28.333Z,21.72
2022-08-17T21:06:17.245Z,21.74
2022-08-17T21:08:29.703Z,21.75
2022-08-17T21:10:35.876Z,21.73
2022-08-17T21:13:04.604Z,21.76
2022-08-17T21:15:17.210Z,21.74
2022-08-17T21:17:38.463Z,21.73
2022-08-17T21:20:13.801Z,21.74
2022-08-17T21:22:43.380Z,21.73
2022-08-17T21:25:37.255Z,21.71
2022-08-17T21:27:58.752Z,21.67
2022-08-17T21:30:06.717Z,21.66
2022-08-17T21:32:23.761Z,21.67
2022-08-17T21:34:38.894Z,21.64
2022-08-17T21:36:41.983Z,21.64
2022-08-17T21:38:57.381Z,21.63
2022-08-17T21:40:59.596Z,21.66
2022-08-17T21:43:23.628Z,21.64
2022-08-17T21:45:32.244Z,21.65
2022-08-17T21:47:35.017Z,21.62
2022-08-17T21:49:37.813Z,21.65
2022-08-17T21:51:56.511Z,21.66
2022-08-17T21:54:05.206Z,21.69
2022-08-17T21:56:13.032Z,21.68
2022-08-17T21:58:39.980Z,21.69
2022-08-17T22:00:44.515Z,21.68
2022-08-17T22:02:55.428Z,21.67
2022-08-17T22:04:59.010Z,21.68
2022-08-17T22:07:03.672Z,21.66
2022-08-17T22:09:13.020Z,21.61
2022-08-17T22:11:17.032Z,21.68
2022-08-17T22:13:19.838Z,21.67
2022-08-17T22:15:21.786Z,21.67
2022-08-17T22:17:27.304Z,21.68
2022-08-17T22:19:30.457Z,21.66
2022-08-17T22:21:32.186Z,21.67
2022-08-17T22:23:59.454Z,21.65
2022-08-17T22:26:09.569Z,21.65
2022-08-17T22:28:39.773Z,21.65
2022-08-17T22:31:01.697Z,21.60
2022-08-17T22:33:31.446Z,21.64
2022-08-17T22:35:43.266Z,21.61
2022-08-17T22:37:45.540Z,21.60
2022-08-17T22:39:58.114Z,21.60
2022-08-17T22:42:00.934Z,21.59
2022-08-17T22:44:29.672Z,21.58
2022-08-17T22:46:47.731Z,21.56
2022-08-17T22:48:52.773Z,21.54
2022-08-17T22:51:18.301Z,21.51
2022-08-17T22:53:41.979Z,21.50
2022-08-17T22:56:14.531Z,21.51
2022-08-17T22:58:38.396Z,21.51
2022-08-17T23:00:45.693Z,21.42
2022-08-17T23:03:05.699Z,21.45
2022-08-17T23:05:13.356Z,21.45
2022-08-17T23:07:15.440Z,21.43
2022-08-17T23:09:17.322Z,21.44
2022-08-17T23:11:19.096Z,21.42
2022-08-17T23:13:38.148Z,21.37
2022-08-17T23:15:41.131Z,21.41
2022-08-17T23:17:45.259Z,21.40
2022-08-17T23:19:47.243Z,21.41
2022-08-17T23:21:55.722Z,21.41
2022-08-17T23:23:59.344Z,21.44
2022-08-17T23:26:05.394Z,21.36
2022-08-17T23:28:07.290Z,21.40
2022-08-17T23:30:10.739Z,21.41
2022-08-17T23:32:15.896Z,21.41
2022-08-17T23:34:18.665Z,21.40
2022-08-17T23:36:20.404Z,21.39
2022-08-17T23:38:22.652Z,21.33
2022-08-17T23:40:24.767Z,21.37
2022-08-17T23:42:28.734Z,21.36
2022-08-17T23:44:31.139Z,21.34
2022-08-17T23:46:32.915Z,21.29
2022-08-17T23:48:35.816Z,21.35
2022-08-17T23:50:38.775Z,21.32
2022-08-17T23:52:43.371Z,21.31
2022-08-17T23:54:46.864Z,21.31
2022-08-17T23:56:48.799Z,21.29
2022-08-17T23:58:51.439Z,21.30
